sensor_id;sensor_type;location;lat;lon;timestamp;P1;durP1;ratioP1;P2;durP2;ratioP2
25948;SDS011;13961;51.178;4.448;2022-10-17T00:00:05;9.50;;;6.22;;
25948;SDS011;13961;51.178;4.448;2022-10-17T00:05:53;10.35;;;6.32;;
25948;SDS011;13961;51.178;4.448;2022-10-17T00:11:41;11.90;;;5.38;;
25948;SDS011;13961;51.178;4.448;2022-10-17T00:17:29;9.50;;;6.25;;
25948;SDS011;13961;51.178;4.448;2022-10-17T00:23:17;9.90;;;6.45;;
25948;SDS011;13961;51.178;4.448;2022-10-17T00:29:04;11.63;;;6.65;;
25948;SDS011;13961;51.178;4.448;2022-10-17T00:34:52;15.20;;;7.50;;
25948;SDS011;13961;51.178;4.448;2022-10-17T00:40:40;10.27;;;6.75;;
25948;SDS011;13961;51.178;4.448;2022-10-17T00:46:32;12.07;;;6.55;;
25948;SDS011;13961;51.178;4.448;2022-10-17T00:52:24;10.02;;;6.43;;
25948;SDS011;13961;51.178;4.448;2022-10-17T00:58:14;11.70;;;7.25;;
25948;SDS011;13961;51.178;4.448;2022-10-17T01:04:03;9.95;;;6.45;;
25948;SDS011;13961;51.178;4.448;2022-10-17T01:09:51;14.10;;;7.78;;
25948;SDS011;13961;51.178;4.448;2022-10-17T01:21:30;9.50;;;6.80;;
25948;SDS011;13961;51.178;4.448;2022-10-17T01:27:31;10.93;;;7.30;;
25948;SDS011;13961;51.178;4.448;2022-10-17T01:40:08;12.00;;;7.47;;
25948;SDS011;13961;51.178;4.448;2022-10-17T01:46:02;14.15;;;7.72;;
25948;SDS011;13961;51.178;4.448;2022-10-17T01:52:03;13.02;;;7.65;;
25948;SDS011;13961;51.178;4.448;2022-10-17T01:57:56;12.13;;;7.57;;
25948;SDS011;13961;51.178;4.448;2022-10-17T02:03:49;11.10;;;7.07;;
25948;SDS011;13961;51.178;4.448;2022-10-17T02:09:38;10.93;;;7.05;;
25948;SDS011;13961;51.178;4.448;2022-10-17T02:35:40;10.98;;;6.43;;
25948;SDS011;13961;51.178;4.448;2022-10-17T02:41:31;11.88;;;7.18;;
25948;SDS011;13961;51.178;4.448;2022-10-17T03:04:11;14.52;;;7.18;;
25948;SDS011;13961;51.178;4.448;2022-10-17T03:09:59;10.60;;;6.20;;
25948;SDS011;13961;51.178;4.448;2022-10-17T03:15:47;12.20;;;6.97;;
25948;SDS011;13961;51.178;4.448;2022-10-17T03:21:35;12.13;;;6.72;;
25948;SDS011;13961;51.178;4.448;2022-10-17T03:27:24;12.88;;;7.15;;
25948;SDS011;13961;51.178;4.448;2022-10-17T03:33:11;9.43;;;6.88;;
25948;SDS011;13961;51.178;4.448;2022-10-17T03:38:59;11.95;;;6.30;;
25948;SDS011;13961;51.178;4.448;2022-10-17T03:44:46;10.35;;;6.38;;
25948;SDS011;13961;51.178;4.448;2022-10-17T03:50:34;10.70;;;6.45;;
25948;SDS011;13961;51.178;4.448;2022-10-17T03:56:22;11.10;;;6.50;;
25948;SDS011;13961;51.178;4.448;2022-10-17T04:02:11;14.60;;;6.45;;
25948;SDS011;13961;51.178;4.448;2022-10-17T04:07:58;13.40;;;6.47;;
25948;SDS011;13961;51.178;4.448;2022-10-17T04:13:46;10.30;;;6.72;;
25948;SDS011;13961;51.178;4.448;2022-10-17T04:19:38;12.65;;;6.85;;
25948;SDS011;13961;51.178;4.448;2022-10-17T04:25:26;15.23;;;6.93;;
25948;SDS011;13961;51.178;4.448;2022-10-17T04:31:14;14.43;;;6.80;;
25948;SDS011;13961;51.178;4.448;2022-10-17T04:37:02;9.52;;;6.60;;
25948;SDS011;13961;51.178;4.448;2022-10-17T04:42:50;11.85;;;6.57;;
25948;SDS011;13961;51.178;4.448;2022-10-17T04:48:38;13.02;;;6.65;;
25948;SDS011;13961;51.178;4.448;2022-10-17T04:54:27;12.88;;;5.88;;
25948;SDS011;13961;51.178;4.448;2022-10-17T05:00:14;13.23;;;6.72;;
25948;SDS011;13961;51.178;4.448;2022-10-17T05:06:06;10.68;;;6.70;;
25948;SDS011;13961;51.178;4.448;2022-10-17T05:11:55;12.32;;;6.40;;
25948;SDS011;13961;51.178;4.448;2022-10-17T05:17:43;8.60;;;6.10;;
25948;SDS011;13961;51.178;4.448;2022-10-17T05:23:30;12.65;;;6.80;;
25948;SDS011;13961;51.178;4.448;2022-10-17T05:29:18;10.23;;;6.63;;
25948;SDS011;13961;51.178;4.448;2022-10-17T05:35:06;16.05;;;7.18;;
25948;SDS011;13961;51.178;4.448;2022-10-17T05:40:57;14.23;;;7.30;;
25948;SDS011;13961;51.178;4.448;2022-10-17T05:46:49;12.98;;;7.18;;
25948;SDS011;13961;51.178;4.448;2022-10-17T05:52:37;13.27;;;7.32;;
25948;SDS011;13961;51.178;4.448;2022-10-17T05:58:24;10.15;;;6.72;;
25948;SDS011;13961;51.178;4.448;2022-10-17T06:04:12;12.75;;;6.35;;
25948;SDS011;13961;51.178;4.448;2022-10-17T06:10:00;9.18;;;6.65;;
25948;SDS011;13961;51.178;4.448;2022-10-17T06:22:32;11.95;;;6.72;;
25948;SDS011;13961;51.178;4.448;2022-10-17T06:28:20;11.45;;;6.00;;
25948;SDS011;13961;51.178;4.448;2022-10-17T06:34:08;15.88;;;6.80;;
25948;SDS011;13961;51.178;4.448;2022-10-17T06:39:55;10.63;;;6.82;;
25948;SDS011;13961;51.178;4.448;2022-10-17T06:45:44;10.52;;;5.47;;
25948;SDS011;13961;51.178;4.448;2022-10-17T06:51:35;11.10;;;6.13;;
25948;SDS011;13961;51.178;4.448;2022-10-17T06:57:23;12.15;;;6.18;;
25948;SDS011;13961;51.178;4.448;2022-10-17T07:03:11;17.98;;;6.85;;
25948;SDS011;13961;51.178;4.448;2022-10-17T07:08:58;12.18;;;6.22;;
25948;SDS011;13961;51.178;4.448;2022-10-17T07:14:48;12.93;;;6.00;;
25948;SDS011;13961;51.178;4.448;2022-10-17T07:20:36;10.73;;;6.18;;
25948;SDS011;13961;51.178;4.448;2022-10-17T07:26:24;9.18;;;6.15;;
25948;SDS011;13961;51.178;4.448;2022-10-17T07:32:12;7.95;;;5.78;;
25948;SDS011;13961;51.178;4.448;2022-10-17T07:37:59;9.90;;;5.57;;
25948;SDS011;13961;51.178;4.448;2022-10-17T07:43:47;12.93;;;5.93;;
25948;SDS011;13961;51.178;4.448;2022-10-17T07:49:35;9.30;;;5.85;;
25948;SDS011;13961;51.178;4.448;2022-10-17T07:55:28;6.65;;;5.30;;
25948;SDS011;13961;51.178;4.448;2022-10-17T08:01:16;8.85;;;5.47;;
25948;SDS011;13961;51.178;4.448;2022-10-17T08:07:10;9.55;;;4.60;;
25948;SDS011;13961;51.178;4.448;2022-10-17T08:12:57;7.78;;;4.10;;
25948;SDS011;13961;51.178;4.448;2022-10-17T08:18:45;10.73;;;5.00;;
25948;SDS011;13961;51.178;4.448;2022-10-17T08:24:33;9.38;;;5.03;;
25948;SDS011;13961;51.178;4.448;2022-10-17T08:30:21;6.80;;;4.63;;
25948;SDS011;13961;51.178;4.448;2022-10-17T08:36:09;6.93;;;3.85;;
25948;SDS011;13961;51.178;4.448;2022-10-17T08:48:13;6.95;;;4.43;;
25948;SDS011;13961;51.178;4.448;2022-10-17T08:54:11;6.82;;;3.78;;
25948;SDS011;13961;51.178;4.448;2022-10-17T09:00:02;7.05;;;4.60;;
25948;SDS011;13961;51.178;4.448;2022-10-17T09:06:11;9.65;;;4.88;;
25948;SDS011;13961;51.178;4.448;2022-10-17T09:18:49;6.75;;;4.38;;
25948;SDS011;13961;51.178;4.448;2022-10-17T09:24:50;8.00;;;4.60;;
25948;SDS011;13961;51.178;4.448;2022-10-17T09:30:43;6.93;;;4.93;;
25948;SDS011;13961;51.178;4.448;2022-10-17T09:36:34;6.70;;;4.60;;
25948;SDS011;13961;51.178;4.448;2022-10-17T09:42:23;8.50;;;5.00;;
25948;SDS011;13961;51.178;4.448;2022-10-17T09:48:17;6.75;;;4.50;;
25948;SDS011;13961;51.178;4.448;2022-10-17T09:54:20;8.52;;;4.78;;
25948;SDS011;13961;51.178;4.448;2022-10-17T10:00:18;9.32;;;4.57;;
25948;SDS011;13961;51.178;4.448;2022-10-17T10:06:12;6.78;;;4.28;;
25948;SDS011;13961;51.178;4.448;2022-10-17T10:12:05;6.40;;;4.53;;
25948;SDS011;13961;51.178;4.448;2022-10-17T10:18:02;10.80;;;5.38;;
25948;SDS011;13961;51.178;4.448;2022-10-17T10:30:34;8.93;;;5.68;;
25948;SDS011;13961;51.178;4.448;2022-10-17T10:36:22;8.20;;;5.28;;
25948;SDS011;13961;51.178;4.448;2022-10-17T10:42:17;12.93;;;6.32;;
25948;SDS011;13961;51.178;4.448;2022-10-17T10:54:13;12.77;;;6.28;;
25948;SDS011;13961;51.178;4.448;2022-10-17T11:00:17;11.70;;;5.90;;
25948;SDS011;13961;51.178;4.448;2022-10-17T11:06:12;11.65;;;6.13;;
25948;SDS011;13961;51.178;4.448;2022-10-17T11:12:06;10.50;;;6.30;;
25948;SDS011;13961;51.178;4.448;2022-10-17T11:31:35;8.00;;;4.70;;
25948;SDS011;13961;51.178;4.448;2022-10-17T11:37:27;6.32;;;4.28;;
25948;SDS011;13961;51.178;4.448;2022-10-17T11:49:10;4.60;;;3.75;;
25948;SDS011;13961;51.178;4.448;2022-10-17T11:55:02;6.18;;;3.63;;
25948;SDS011;13961;51.178;4.448;2022-10-17T12:00:59;5.25;;;3.67;;
25948;SDS011;13961;51.178;4.448;2022-10-17T12:19:50;6.50;;;3.80;;
25948;SDS011;13961;51.178;4.448;2022-10-17T12:32:21;5.82;;;3.47;;
25948;SDS011;13961;51.178;4.448;2022-10-17T12:47:36;4.78;;;3.55;;
25948;SDS011;13961;51.178;4.448;2022-10-17T12:53:25;5.38;;;4.25;;
25948;SDS011;13961;51.178;4.448;2022-10-17T12:59:37;7.47;;;3.83;;
25948;SDS011;13961;51.178;4.448;2022-10-17T13:05:30;6.82;;;3.92;;
25948;SDS011;13961;51.178;4.448;2022-10-17T13:11:22;6.72;;;4.25;;
25948;SDS011;13961;51.178;4.448;2022-10-17T13:17:32;6.65;;;4.07;;
25948;SDS011;13961;51.178;4.448;2022-10-17T13:23:21;7.07;;;4.10;;
25948;SDS011;13961;51.178;4.448;2022-10-17T13:29:15;8.70;;;4.53;;
25948;SDS011;13961;51.178;4.448;2022-10-17T13:40:55;6.57;;;4.60;;
25948;SDS011;13961;51.178;4.448;2022-10-17T13:46:43;7.78;;;4.45;;
25948;SDS011;13961;51.178;4.448;2022-10-17T13:52:31;8.80;;;4.50;;
25948;SDS011;13961;51.178;4.448;2022-10-17T13:58:18;7.97;;;4.30;;
25948;SDS011;13961;51.178;4.448;2022-10-17T14:04:07;7.70;;;4.72;;
25948;SDS011;13961;51.178;4.448;2022-10-17T14:09:55;9.70;;;4.40;;
25948;SDS011;13961;51.178;4.448;2022-10-17T14:15:43;8.25;;;4.05;;
25948;SDS011;13961;51.178;4.448;2022-10-17T14:21:32;9.60;;;5.00;;
25948;SDS011;13961;51.178;4.448;2022-10-17T14:34:04;7.40;;;4.95;;
25948;SDS011;13961;51.178;4.448;2022-10-17T14:39:52;7.65;;;4.60;;
25948;SDS011;13961;51.178;4.448;2022-10-17T14:45:41;9.18;;;4.68;;
25948;SDS011;13961;51.178;4.448;2022-10-17T14:51:28;14.10;;;4.47;;
25948;SDS011;13961;51.178;4.448;2022-10-17T15:03:18;9.40;;;4.70;;
25948;SDS011;13961;51.178;4.448;2022-10-17T15:09:06;5.53;;;3.90;;
25948;SDS011;13961;51.178;4.448;2022-10-17T15:14:55;5.38;;;3.97;;
25948;SDS011;13961;51.178;4.448;2022-10-17T15:20:42;7.85;;;4.18;;
25948;SDS011;13961;51.178;4.448;2022-10-17T15:26:31;6.25;;;4.18;;
25948;SDS011;13961;51.178;4.448;2022-10-17T15:32:20;9.25;;;3.95;;
25948;SDS011;13961;51.178;4.448;2022-10-17T15:38:07;9.98;;;4.00;;
25948;SDS011;13961;51.178;4.448;2022-10-17T15:43:55;8.77;;;4.15;;
25948;SDS011;13961;51.178;4.448;2022-10-17T15:49:43;8.00;;;4.10;;
25948;SDS011;13961;51.178;4.448;2022-10-17T15:55:30;9.45;;;4.47;;
25948;SDS011;13961;51.178;4.448;2022-10-17T16:01:22;7.15;;;3.83;;
25948;SDS011;13961;51.178;4.448;2022-10-17T16:07:15;6.35;;;4.00;;
25948;SDS011;13961;51.178;4.448;2022-10-17T16:13:04;8.55;;;4.40;;
25948;SDS011;13961;51.178;4.448;2022-10-17T16:18:51;10.68;;;4.90;;
25948;SDS011;13961;51.178;4.448;2022-10-17T16:24:39;8.25;;;5.00;;
25948;SDS011;13961;51.178;4.448;2022-10-17T16:30:28;12.00;;;5.28;;
25948;SDS011;13961;51.178;4.448;2022-10-17T16:36:16;9.00;;;4.90;;
25948;SDS011;13961;51.178;4.448;2022-10-17T16:42:03;10.88;;;5.50;;
25948;SDS011;13961;51.178;4.448;2022-10-17T16:47:51;10.75;;;6.03;;
25948;SDS011;13961;51.178;4.448;2022-10-17T16:53:39;10.25;;;5.70;;
25948;SDS011;13961;51.178;4.448;2022-10-17T16:59:30;8.52;;;6.07;;
25948;SDS011;13961;51.178;4.448;2022-10-17T17:05:18;10.45;;;6.03;;
25948;SDS011;13961;51.178;4.448;2022-10-17T17:11:06;7.90;;;5.88;;
25948;SDS011;13961;51.178;4.448;2022-10-17T17:16:58;10.52;;;6.20;;
25948;SDS011;13961;51.178;4.448;2022-10-17T17:22:46;13.80;;;6.88;;
25948;SDS011;13961;51.178;4.448;2022-10-17T17:28:37;13.43;;;8.07;;
25948;SDS011;13961;51.178;4.448;2022-10-17T17:34:25;14.25;;;8.07;;
25948;SDS011;13961;51.178;4.448;2022-10-17T17:40:12;14.32;;;8.68;;
25948;SDS011;13961;51.178;4.448;2022-10-17T17:46:00;14.88;;;8.13;;
25948;SDS011;13961;51.178;4.448;2022-10-17T17:51:48;14.57;;;7.97;;
25948;SDS011;13961;51.178;4.448;2022-10-17T17:57:35;11.30;;;7.00;;
25948;SDS011;13961;51.178;4.448;2022-10-17T18:03:23;13.40;;;7.95;;
25948;SDS011;13961;51.178;4.448;2022-10-17T18:09:11;13.93;;;9.10;;
25948;SDS011;13961;51.178;4.448;2022-10-17T18:14:59;13.00;;;8.93;;
25948;SDS011;13961;51.178;4.448;2022-10-17T18:20:47;12.52;;;8.48;;
25948;SDS011;13961;51.178;4.448;2022-10-17T18:26:35;12.43;;;7.85;;
25948;SDS011;13961;51.178;4.448;2022-10-17T18:32:22;12.98;;;8.02;;
25948;SDS011;13961;51.178;4.448;2022-10-17T18:38:10;12.90;;;8.20;;
25948;SDS011;13961;51.178;4.448;2022-10-17T18:43:58;10.50;;;7.82;;
25948;SDS011;13961;51.178;4.448;2022-10-17T18:49:52;14.20;;;8.38;;
25948;SDS011;13961;51.178;4.448;2022-10-17T18:55:40;10.98;;;8.02;;
25948;SDS011;13961;51.178;4.448;2022-10-17T19:01:28;10.40;;;7.40;;
25948;SDS011;13961;51.178;4.448;2022-10-17T19:07:16;11.48;;;7.07;;
25948;SDS011;13961;51.178;4.448;2022-10-17T19:13:07;14.65;;;7.60;;
25948;SDS011;13961;51.178;4.448;2022-10-17T19:18:56;10.95;;;7.88;;
25948;SDS011;13961;51.178;4.448;2022-10-17T19:21:24;12.48;;;7.38;;
25948;SDS011;13961;51.178;4.448;2022-10-17T19:27:12;16.45;;;8.48;;
25948;SDS011;13961;51.178;4.448;2022-10-17T19:32:59;13.30;;;9.15;;
25948;SDS011;13961;51.178;4.448;2022-10-17T19:38:48;16.05;;;8.90;;
25948;SDS011;13961;51.178;4.448;2022-10-17T19:44:38;13.30;;;8.95;;
25948;SDS011;13961;51.178;4.448;2022-10-17T19:50:25;14.30;;;8.95;;
25948;SDS011;13961;51.178;4.448;2022-10-17T19:56:13;13.77;;;8.77;;
25948;SDS011;13961;51.178;4.448;2022-10-17T20:02:04;15.15;;;8.90;;
25948;SDS011;13961;51.178;4.448;2022-10-17T20:07:51;11.95;;;8.27;;
25948;SDS011;13961;51.178;4.448;2022-10-17T20:13:38;15.23;;;8.68;;
25948;SDS011;13961;51.178;4.448;2022-10-17T20:19:40;14.52;;;8.85;;
25948;SDS011;13961;51.178;4.448;2022-10-17T20:25:28;16.08;;;8.60;;
25948;SDS011;13961;51.178;4.448;2022-10-17T20:31:15;12.68;;;8.27;;
25948;SDS011;13961;51.178;4.448;2022-10-17T20:37:03;13.15;;;9.10;;
25948;SDS011;13961;51.178;4.448;2022-10-17T20:42:51;16.52;;;9.52;;
25948;SDS011;13961;51.178;4.448;2022-10-17T20:48:40;15.13;;;8.63;;
25948;SDS011;13961;51.178;4.448;2022-10-17T20:51:06;14.63;;;9.13;;
25948;SDS011;13961;51.178;4.448;2022-10-17T20:56:55;13.25;;;8.88;;
25948;SDS011;13961;51.178;4.448;2022-10-17T21:02:42;19.63;;;9.77;;
25948;SDS011;13961;51.178;4.448;2022-10-17T21:08:30;13.98;;;9.43;;
25948;SDS011;13961;51.178;4.448;2022-10-17T21:14:17;23.75;;;10.02;;
25948;SDS011;13961;51.178;4.448;2022-10-17T21:20:05;19.80;;;10.18;;
25948;SDS011;13961;51.178;4.448;2022-10-17T21:25:53;15.80;;;8.50;;
25948;SDS011;13961;51.178;4.448;2022-10-17T21:31:45;13.30;;;8.55;;
25948;SDS011;13961;51.178;4.448;2022-10-17T21:37:33;13.27;;;8.55;;
25948;SDS011;13961;51.178;4.448;2022-10-17T21:43:21;18.63;;;8.95;;
25948;SDS011;13961;51.178;4.448;2022-10-17T21:49:09;13.57;;;8.50;;
25948;SDS011;13961;51.178;4.448;2022-10-17T21:54:58;13.05;;;8.35;;
25948;SDS011;13961;51.178;4.448;2022-10-17T22:00:46;16.15;;;8.30;;
25948;SDS011;13961;51.178;4.448;2022-10-17T22:06:36;14.32;;;9.10;;
25948;SDS011;13961;51.178;4.448;2022-10-17T22:12:25;14.15;;;8.98;;
25948;SDS011;13961;51.178;4.448;2022-10-17T22:18:12;13.90;;;9.00;;
25948;SDS011;13961;51.178;4.448;2022-10-17T22:24:01;12.80;;;9.23;;
25948;SDS011;13961;51.178;4.448;2022-10-17T22:29:52;16.30;;;9.45;;
25948;SDS011;13961;51.178;4.448;2022-10-17T22:35:41;16.90;;;9.80;;
25948;SDS011;13961;51.178;4.448;2022-10-17T22:41:29;14.60;;;9.43;;
25948;SDS011;13961;51.178;4.448;2022-10-17T22:47:16;15.32;;;10.52;;
25948;SDS011;13961;51.178;4.448;2022-10-17T22:53:04;17.52;;;11.00;;
25948;SDS011;13961;51.178;4.448;2022-10-17T22:58:52;20.85;;;11.43;;
25948;SDS011;13961;51.178;4.448;2022-10-17T23:04:39;16.00;;;10.68;;
25948;SDS011;13961;51.178;4.448;2022-10-17T23:10:27;16.70;;;11.73;;
25948;SDS011;13961;51.178;4.448;2022-10-17T23:16:15;20.70;;;11.00;;
25948;SDS011;13961;51.178;4.448;2022-10-17T23:25:29;16.90;;;10.68;;
25948;SDS011;13961;51.178;4.448;2022-10-17T23:31:19;16.55;;;10.30;;
25948;SDS011;13961;51.178;4.448;2022-10-17T23:37:10;15.85;;;10.18;;
25948;SDS011;13961;51.178;4.448;2022-10-17T23:42:58;16.65;;;9.88;;
25948;SDS011;13961;51.178;4.448;2022-10-17T23:48:45;16.95;;;9.98;;
25948;SDS011;13961;51.178;4.448;2022-10-17T23:54:33;20.88;;;9.93;;
